Time;durP1;ratioP1;P1;durP2;ratioP2;P2;SDS_P1;SDS_P2;PMS_P1;PMS_P2;Temp;Humidity;BMP_temperature;BMP_pressure;BME280_temperature;BME280_humidity;BME280_pressure;Samples;Min_cycle;Max_cycle;Signal;HPM_P1;HPM_P2
2023/03/12 00:01:16;;;;;;;1.40;1.27;;;;;;;1.45;62.01;98612.56;4486421;32;35199;-73
2023/03/12 00:03:46;;;;;;;0.70;0.70;;;;;;;1.10;62.38;98612.06;4472570;32;33303;-73
2023/03/12 00:06:14;;;;;;;0.70;0.70;;;;;;;0.95;62.56;98610.09;4486429;32;33865;-73
2023/03/12 00:08:43;;;;;;;0.80;0.80;;;;;;;1.02;62.44;98622.19;4472398;32;35022;-73
2023/03/12 00:11:13;;;;;;;0.80;0.80;;;;;;;1.04;62.85;98622.19;4486244;32;35306;-73
2023/03/12 00:13:42;;;;;;;0.80;0.80;;;;;;;1.13;62.47;98628.34;4472372;32;34537;-73
2023/03/12 00:16:12;;;;;;;0.70;0.70;;;;;;;0.86;62.04;98621.06;4472385;32;33748;-74
2023/03/12 00:18:42;;;;;;;0.70;0.70;;;;;;;0.87;61.40;98638.19;4486247;32;34951;-73
2023/03/12 00:21:10;;;;;;;3.03;2.42;;;;;;;1.05;61.63;98636.75;4486365;32;34469;-73
2023/03/12 00:23:38;;;;;;;0.93;0.93;;;;;;;1.03;61.11;98638.44;4472093;32;34364;-73
2023/03/12 00:26:09;;;;;;;0.70;0.70;;;;;;;1.03;61.00;98643.56;4472255;32;32312;-73
2023/03/12 00:28:38;;;;;;;0.85;0.85;;;;;;;1.03;61.35;98643.56;4472199;32;34241;-74
2023/03/12 00:31:21;;;;;;;0.70;0.70;;;;;;;1.04;61.46;98641.03;4472310;32;35338;-74
2023/03/12 00:33:49;;;;;;;0.70;0.70;;;;;;;0.87;62.29;98651.00;4486238;32;33524;-73
2023/03/12 00:36:23;;;;;;;1.02;1.02;;;;;;;1.26;61.08;98652.47;4485507;32;34675;-74
2023/03/12 00:38:51;;;;;;;0.70;0.70;;;;;;;1.37;60.39;98654.34;4472290;32;34964;-74
2023/03/12 00:41:21;;;;;;;0.93;0.93;;;;;;;1.18;60.48;98658.31;4472301;32;34874;-73
2023/03/12 00:43:50;;;;;;;0.80;0.80;;;;;;;0.80;62.12;98661.13;4472113;32;33441;-73
2023/03/12 00:46:18;;;;;;;0.70;0.70;;;;;;;1.15;61.09;98666.84;4486422;32;33874;-74
2023/03/12 00:48:47;;;;;;;0.70;0.70;;;;;;;1.29;61.36;98669.63;4472427;32;35008;-73
2023/03/12 00:51:15;;;;;;;0.70;0.70;;;;;;;1.28;60.99;98678.16;4486179;32;35296;-73
2023/03/12 00:53:44;;;;;;;0.80;0.80;;;;;;;1.03;61.37;98674.34;4472183;32;33529;-74
2023/03/12 00:56:12;;;;;;;0.80;0.80;;;;;;;1.31;61.40;98685.91;4472191;32;34003;-74
2023/03/12 00:58:42;;;;;;;1.42;1.35;;;;;;;1.07;61.90;98681.22;4486028;32;36003;-73
2023/03/12 01:01:10;;;;;;;0.95;0.95;;;;;;;1.13;62.04;98681.34;4472366;32;34340;-74
2023/03/12 01:03:39;;;;;;;0.70;0.70;;;;;;;0.98;62.58;98688.78;4486022;32;33629;-74
2023/03/12 01:06:07;;;;;;;0.70;0.70;;;;;;;0.80;63.25;98692.75;4485843;32;33878;-73
2023/03/12 01:08:35;;;;;;;0.70;0.70;;;;;;;0.72;63.69;98687.50;4472035;32;35857;-74
2023/03/12 01:11:04;;;;;;;0.70;0.70;;;;;;;0.91;63.20;98695.50;4472052;32;34400;-73
2023/03/12 01:13:33;;;;;;;0.70;0.70;;;;;;;1.19;62.57;98691.69;4486101;32;33096;-74
2023/03/12 01:16:01;;;;;;;0.70;0.70;;;;;;;1.09;62.72;98694.94;4485982;32;34606;-73
2023/03/12 01:18:29;;;;;;;0.70;0.70;;;;;;;1.16;63.16;98696.75;4485677;32;35160;-74
2023/03/12 01:20:58;;;;;;;0.70;0.70;;;;;;;0.75;64.09;98694.34;4485940;32;35312;-74
2023/03/12 01:23:26;;;;;;;0.70;0.70;;;;;;;0.75;64.29;98712.28;4485811;32;34290;-74
2023/03/12 01:25:55;;;;;;;0.70;0.70;;;;;;;1.05;63.66;98708.53;4485927;32;34565;-74
2023/03/12 01:28:23;;;;;;;0.70;0.70;;;;;;;0.63;64.76;98709.50;4471814;32;35875;-74
2023/03/12 01:30:52;;;;;;;0.70;0.70;;;;;;;0.76;64.80;98721.72;4485912;32;34414;-74
2023/03/12 01:33:21;;;;;;;1.40;1.40;;;;;;;0.32;66.40;98721.72;4486036;32;33543;-74
2023/03/12 01:35:49;;;;;;;0.70;0.70;;;;;;;0.36;67.09;98720.94;4485827;32;34781;-73
2023/03/12 01:38:19;;;;;;;0.80;0.80;;;;;;;0.43;66.76;98720.22;4485686;32;35836;-74
2023/03/12 01:40:48;;;;;;;5.20;4.82;;;;;;;0.31;67.29;98727.66;4471819;32;34327;-74
2023/03/12 01:43:23;;;;;;;0.70;0.70;;;;;;;0.40;66.82;98734.69;4471799;32;33472;-74
2023/03/12 01:46:20;;;;;;;1.27;1.25;;;;;;;0.31;66.86;98733.66;4485014;32;34727;-74
2023/03/12 01:49:17;;;;;;;1.10;0.93;;;;;;;0.18;67.42;98735.09;4485438;32;35937;-74
2023/03/12 01:51:45;;;;;;;;;;;;;;;-0.24;68.80;98741.00;4471983;32;33621;-74
2023/03/12 01:54:34;;;;;;;0.70;0.70;;;;;;;0.03;67.66;98737.31;4485873;32;33528;-74
2023/03/12 01:57:05;;;;;;;0.70;0.70;;;;;;;0.53;66.44;98740.06;4471950;32;34695;-74
2023/03/12 01:59:44;;;;;;;0.77;0.77;;;;;;;0.47;66.67;98744.19;4471341;32;35118;-74
2023/03/12 02:02:14;;;;;;;3.72;1.12;;;;;;;0.49;66.41;98743.37;4471662;32;34510;-74
2023/03/12 02:04:43;;;;;;;2.25;2.15;;;;;;;0.20;67.46;98741.97;4485690;32;34139;-74
2023/03/12 02:07:15;;;;;;;0.90;0.90;;;;;;;0.37;67.00;98750.81;4471557;32;33889;-74
2023/03/12 02:09:47;;;;;;;0.80;0.80;;;;;;;0.62;66.19;98757.31;4471481;32;35108;-74
2023/03/12 02:12:16;;;;;;;0.80;0.80;;;;;;;0.02;68.42;98758.66;4471334;32;34552;-74
2023/03/12 02:14:45;;;;;;;0.70;0.70;;;;;;;0.34;68.23;98759.31;4485249;32;33520;-74
2023/03/12 02:17:13;;;;;;;0.70;0.70;;;;;;;0.01;68.86;98769.69;4485134;32;33877;-74
2023/03/12 02:20:19;;;;;;;0.70;0.70;;;;;;;-0.13;70.03;98765.97;4471067;32;35048;-74
2023/03/12 02:23:02;;;;;;;0.70;0.70;;;;;;;0.30;68.81;98772.03;4429612;32;33630;-74
2023/03/12 02:25:35;;;;;;;0.70;0.70;;;;;;;0.06;69.16;98770.66;4468063;32;33306;-73
2023/03/12 02:28:06;;;;;;;0.70;0.70;;;;;;;-0.30;70.96;98770.69;4469444;32;34556;-74
2023/03/12 02:30:35;;;;;;;0.90;0.90;;;;;;;-0.09;70.46;98766.09;4468211;32;35012;-74
2023/03/12 02:33:06;;;;;;;0.85;0.85;;;;;;;-0.13;70.36;98768.53;4469300;32;34451;-74
2023/03/12 02:35:35;;;;;;;0.80;0.80;;;;;;;-0.11;70.43;98767.72;4468386;32;34193;-74
2023/03/12 02:38:46;;;;;;;0.98;0.98;;;;;;;-0.44;72.06;98778.94;4467998;32;33898;-74
2023/03/12 02:41:17;;;;;;;0.90;0.90;;;;;;;-0.48;72.74;98781.34;4463121;32;35657;-74
2023/03/12 02:43:49;;;;;;;0.70;0.70;;;;;;;-0.28;71.48;98779.25;4468271;32;34540;-74
2023/03/12 02:46:17;;;;;;;1.10;1.10;;;;;;;-0.45;72.49;98784.00;4468225;32;33626;-74
2023/03/12 02:48:46;;;;;;;0.80;0.80;;;;;;;-0.48;71.92;98784.78;4469083;32;34005;-74
2023/03/12 02:51:14;;;;;;;0.70;0.70;;;;;;;-0.53;72.76;98788.06;4469073;32;35159;-73
2023/03/12 02:53:42;;;;;;;0.70;0.70;;;;;;;-0.74;73.44;98790.94;4467850;32;34552;-74
2023/03/12 02:56:12;;;;;;;0.80;0.80;;;;;;;-0.51;73.10;98799.19;4467780;32;33538;-74
2023/03/12 02:58:41;;;;;;;2.45;2.35;;;;;;;-0.35;72.49;98806.41;4470154;32;33836;-73
2023/03/12 03:01:10;;;;;;;0.70;0.70;;;;;;;-0.46;72.17;98808.72;4470218;32;34188;-73
2023/03/12 03:03:38;;;;;;;0.90;0.90;;;;;;;-0.57;73.09;98820.34;4471178;32;34616;-74
2023/03/12 03:06:07;;;;;;;0.80;0.80;;;;;;;-0.44;72.57;98821.50;4471149;32;33583;-74
2023/03/12 03:08:35;;;;;;;5.80;1.25;;;;;;;-0.60;72.79;98830.50;4470170;32;34662;-73
2023/03/12 03:11:03;;;;;;;1.90;1.80;;;;;;;-0.39;72.48;98846.41;4470151;32;36015;-73
2023/03/12 03:13:32;;;;;;;0.88;0.88;;;;;;;-0.63;73.23;98844.09;4457093;32;33594;-73
2023/03/12 03:16:02;;;;;;;3.30;3.10;;;;;;;-0.67;73.59;98849.94;4471391;32;33645;-74
2023/03/12 03:18:31;;;;;;;1.10;1.10;;;;;;;-0.67;73.52;98844.84;4471168;32;32985;-74
2023/03/12 03:21:05;;;;;;;1.00;1.00;;;;;;;-0.77;73.95;98847.97;4470897;32;35026;-73
2023/03/12 03:23:34;;;;;;;1.00;1.00;;;;;;;-0.62;73.21;98862.84;4471251;32;35163;-74
2023/03/12 03:26:03;;;;;;;0.80;0.80;;;;;;;-0.57;72.51;98858.72;4457420;32;33659;-73
2023/03/12 03:28:31;;;;;;;0.93;0.93;;;;;;;-0.68;73.31;98858.44;4456953;32;32352;-75
2023/03/12 03:31:00;;;;;;;0.70;0.70;;;;;;;-0.86;73.98;98863.06;4470987;32;36010;-74
2023/03/12 03:33:31;;;;;;;0.90;0.90;;;;;;;-0.79;74.02;98870.06;4469997;32;34497;-73
2023/03/12 03:36:01;;;;;;;0.80;0.80;;;;;;;-0.81;74.08;98871.72;4470072;32;33563;-73
2023/03/12 03:38:31;;;;;;;1.00;1.00;;;;;;;-0.61;73.24;98868.00;4470149;32;33880;-74
2023/03/12 03:41:00;;;;;;;0.80;0.80;;;;;;;-0.73;73.46;98882.16;4471125;32;36370;-74
2023/03/12 03:43:28;;;;;;;0.80;0.80;;;;;;;-0.75;73.44;98881.25;4469898;32;34651;-74
2023/03/12 03:45:59;;;;;;;0.80;0.80;;;;;;;-0.86;74.25;98878.41;4470110;32;34076;-74
2023/03/12 03:48:28;;;;;;;0.80;0.80;;;;;;;-0.89;74.55;98878.31;4471225;32;34057;-73
2023/03/12 03:51:04;;;;;;;0.80;0.80;;;;;;;-1.00;74.35;98886.53;4456842;32;34276;-74
2023/03/12 03:53:33;;;;;;;0.70;0.70;;;;;;;-0.92;74.42;98883.34;4469958;32;34453;-74
2023/03/12 03:56:06;;;;;;;0.88;0.88;;;;;;;-0.91;74.52;98880.81;4469927;32;33401;-74
2023/03/12 03:58:36;;;;;;;0.80;0.80;;;;;;;-0.70;73.93;98885.66;4469644;32;33172;-74
2023/03/12 04:01:05;;;;;;;0.80;0.80;;;;;;;-0.38;73.14;98880.50;4469474;32;33577;-74
2023/03/12 04:03:34;;;;;;;0.90;0.90;;;;;;;-0.64;72.67;98879.84;4469864;32;35047;-73
2023/03/12 04:06:04;;;;;;;0.90;0.90;;;;;;;-0.71;73.76;98880.50;4469593;32;33407;-74
2023/03/12 04:08:36;;;;;;;0.80;0.80;;;;;;;-0.88;74.52;98896.25;4470856;32;34081;-74
2023/03/12 04:11:12;;;;;;;0.80;0.80;;;;;;;-0.99;75.14;98895.97;4469012;32;35932;-73
2023/03/12 04:13:42;;;;;;;0.85;0.85;;;;;;;-0.84;74.12;98904.88;4470760;32;35317;-73
2023/03/12 04:16:11;;;;;;;0.82;0.82;;;;;;;-0.73;73.60;98900.91;4470963;32;33611;-73
2023/03/12 04:18:40;;;;;;;0.80;0.80;;;;;;;-0.76;73.62;98900.81;4469827;32;34580;-74
2023/03/12 04:21:10;;;;;;;2.28;2.17;;;;;;;-0.60;73.34;98912.31;4456596;32;34061;-74
2023/03/12 04:23:39;;;;;;;1.12;1.12;;;;;;;-0.58;73.08;98921.78;4471089;32;33647;-74
2023/03/12 04:26:08;;;;;;;0.93;0.93;;;;;;;-0.90;74.10;98928.56;4472755;32;34281;-74
2023/03/12 04:28:37;;;;;;;1.25;1.20;;;;;;;-0.65;73.59;98931.81;4486424;32;34633;-74
2023/03/12 04:31:07;;;;;;;1.00;1.00;;;;;;;-0.81;74.15;98943.31;4472365;32;35041;-74
2023/03/12 04:33:37;;;;;;;0.82;0.82;;;;;;;-0.94;74.34;98936.97;4472324;32;35122;-74
2023/03/12 04:36:07;;;;;;;0.95;0.95;;;;;;;-0.93;74.15;98958.28;4472571;32;33359;-73
2023/03/12 04:38:36;;;;;;;0.80;0.80;;;;;;;-0.85;73.68;98969.59;4472548;32;34737;-73
2023/03/12 04:41:10;;;;;;;0.80;0.80;;;;;;;-1.00;74.35;98968.31;4486101;32;35173;-73
2023/03/12 04:43:39;;;;;;;1.10;1.10;;;;;;;-0.85;73.87;98972.13;4459565;32;34799;-74
2023/03/12 04:46:08;;;;;;;1.37;1.37;;;;;;;-0.91;73.87;98982.19;4486561;32;33420;-74
2023/03/12 04:48:37;;;;;;;0.80;0.80;;;;;;;-0.77;73.61;98975.78;4459381;32;33050;-73
2023/03/12 04:51:06;;;;;;;0.80;0.80;;;;;;;-0.73;73.47;98987.81;4486081;32;35039;-74
2023/03/12 04:53:35;;;;;;;0.80;0.80;;;;;;;-0.89;73.15;98983.09;4486490;32;35102;-74
2023/03/12 04:56:03;;;;;;;1.90;1.80;;;;;;;-0.61;73.09;98980.50;4486270;32;33449;-73
2023/03/12 04:58:32;;;;;;;1.02;1.02;;;;;;;-0.58;72.10;98993.38;4472451;32;34708;-74
2023/03/12 05:01:01;;;;;;;0.80;0.80;;;;;;;-0.69;73.32;99002.44;4472006;32;35130;-74
2023/03/12 05:03:29;;;;;;;0.90;0.90;;;;;;;-1.09;74.50;99014.03;4471991;32;34430;-74
2023/03/12 05:05:57;;;;;;;0.80;0.80;;;;;;;-0.97;74.39;99019.53;4472343;32;33460;-74
2023/03/12 05:08:26;;;;;;;1.12;1.12;;;;;;;-0.71;73.70;99011.75;4472165;32;34751;-73
2023/03/12 05:10:54;;;;;;;0.80;0.80;;;;;;;-0.55;73.09;99004.50;4486302;32;34988;-74
2023/03/12 05:13:23;;;;;;;0.80;0.80;;;;;;;-0.59;73.09;99001.87;4471702;32;32896;-73
2023/03/12 05:15:51;;;;;;;4.10;1.10;;;;;;;-0.76;73.42;98992.84;4486215;32;33774;-74
2023/03/12 05:18:20;;;;;;;1.08;1.08;;;;;;;-0.66;73.24;98999.97;4471920;32;33798;-74
2023/03/12 05:21:06;;;;;;;0.90;0.90;;;;;;;-0.50;72.71;99000.41;4458861;32;35223;-74
2023/03/12 05:23:35;;;;;;;0.90;0.90;;;;;;;-0.72;73.31;98998.91;4458919;32;33507;-74
2023/03/12 05:26:04;;;;;;;0.70;0.70;;;;;;;-0.43;72.41;98999.75;4471904;32;33306;-74
2023/03/12 05:28:33;;;;;;;1.17;1.17;;;;;;;-1.07;74.16;99014.09;4472165;32;34697;-74
2023/03/12 05:31:09;;;;;;;1.05;1.05;;;;;;;-0.81;73.92;99022.56;4471863;32;34997;-74
2023/03/12 05:33:38;;;;;;;0.70;0.70;;;;;;;-0.66;73.28;99029.78;4471856;32;34536;-74
2023/03/12 05:36:07;;;;;;;0.70;0.70;;;;;;;-0.65;73.31;99032.37;4486076;32;33431;-73
2023/03/12 05:38:37;;;;;;;0.80;0.80;;;;;;;-0.43;72.48;99035.56;4485644;32;34695;-74
2023/03/12 05:41:05;;;;;;;1.42;1.33;;;;;;;-0.28;71.88;99038.53;4472051;32;35014;-74
2023/03/12 05:43:35;;;;;;;0.98;0.98;;;;;;;0.23;70.60;99041.56;4486002;32;34695;-74
2023/03/12 05:46:04;;;;;;;1.30;1.27;;;;;;;1.13;67.28;99041.19;4485807;32;34362;-74
2023/03/12 05:48:32;;;;;;;0.80;0.80;;;;;;;2.36;62.93;99044.44;4458744;32;32454;-74
2023/03/12 05:51:02;;;;;;;1.08;1.08;;;;;;;2.79;60.32;99048.59;4471630;32;35810;-74
2023/03/12 05:53:30;;;;;;;2.85;2.03;;;;;;;3.18;58.87;99050.03;4471827;32;35178;-74
2023/03/12 05:56:03;;;;;;;3.95;1.25;;;;;;;4.43;56.03;99061.78;4485711;32;34252;-74
2023/03/12 05:58:32;;;;;;;0.82;0.82;;;;;;;4.89;53.06;99061.31;4485867;32;34690;-74
2023/03/12 06:01:01;;;;;;;1.55;1.08;;;;;;;5.75;51.21;99066.13;4485577;32;35518;-74
2023/03/12 06:03:30;;;;;;;0.90;0.90;;;;;;;6.25;49.79;99074.06;4485410;32;35099;-74
2023/03/12 06:05:58;;;;;;;0.65;0.65;;;;;;;7.46;46.26;99069.75;4485640;32;34446;-74
2023/03/12 06:08:27;;;;;;;0.60;0.60;;;;;;;9.34;42.02;99067.75;4485595;32;33996;-74
2023/03/12 06:10:56;;;;;;;0.60;0.60;;;;;;;8.96;41.90;99076.75;4485298;32;34967;-74
2023/03/12 06:13:26;;;;;;;0.52;0.52;;;;;;;9.68;40.96;99089.88;4471385;32;34442;-74
2023/03/12 06:16:02;;;;;;;0.80;0.80;;;;;;;9.06;41.52;99091.38;4485559;32;33585;-74
2023/03/12 06:18:31;;;;;;;1.73;0.98;;;;;;;7.82;44.31;99099.03;4471232;32;33851;-74
2023/03/12 06:21:15;;;;;;;0.62;0.62;;;;;;;6.45;46.17;99112.03;4458339;32;34213;-74
2023/03/12 06:23:45;;;;;;;0.80;0.80;;;;;;;5.62;49.65;99107.38;4485224;32;34376;-74
2023/03/12 06:26:14;;;;;;;0.60;0.60;;;;;;;5.64;49.13;99107.41;4471405;32;33577;-74
2023/03/12 06:28:44;;;;;;;1.05;1.05;;;;;;;5.84;49.17;99118.72;4485050;32;34458;-74
2023/03/12 06:31:13;;;;;;;1.75;1.27;;;;;;;5.67;50.23;99115.19;4471013;32;35961;-74
2023/03/12 06:33:42;;;;;;;0.98;0.98;;;;;;;5.18;51.27;99114.84;4486035;32;34056;-74
2023/03/12 06:36:10;;;;;;;0.50;0.50;;;;;;;4.83;52.12;99121.44;4472992;32;33609;-74
2023/03/12 06:38:40;;;;;;;1.67;1.40;;;;;;;5.82;50.41;99125.59;4473113;32;34655;-74
2023/03/12 06:41:14;;;;;;;0.88;0.85;;;;;;;5.92;50.97;99130.81;4473008;32;35170;-74
2023/03/12 06:43:44;;;;;;;0.98;0.98;;;;;;;5.86;49.58;99137.66;4486991;32;35278;-74
2023/03/12 06:46:15;;;;;;;1.02;1.02;;;;;;;5.72;49.66;99144.47;4473296;32;34120;-74
2023/03/12 06:48:45;;;;;;;2.22;2.08;;;;;;;7.15;47.12;99141.47;4473164;32;34565;-74
2023/03/12 06:51:15;;;;;;;1.35;1.25;;;;;;;7.15;47.48;99144.06;4487006;32;34991;-74
2023/03/12 06:53:44;;;;;;;1.58;0.95;;;;;;;7.47;45.91;99141.44;4486942;32;34470;-74
2023/03/12 06:56:13;;;;;;;1.02;1.02;;;;;;;7.90;45.13;99143.06;4460113;32;34458;-74
2023/03/12 06:58:41;;;;;;;0.80;0.80;;;;;;;7.26;45.81;99146.63;4472925;32;33806;-74
2023/03/12 07:01:10;;;;;;;1.67;1.45;;;;;;;6.10;47.47;99150.72;4486862;32;35932;-74
2023/03/12 07:03:38;;;;;;;0.98;0.98;;;;;;;5.79;49.35;99154.00;4472715;32;35223;-74
2023/03/12 07:06:13;;;;;;;0.70;0.70;;;;;;;6.41;49.31;99156.88;4472924;32;33395;-74
2023/03/12 07:08:42;;;;;;;1.30;1.30;;;;;;;6.40;48.31;99165.47;4459897;32;32413;-75
2023/03/12 07:11:10;;;;;;;1.45;1.27;;;;;;;5.75;49.37;99167.72;4486837;32;35137;-74
2023/03/12 07:13:39;;;;;;;0.50;0.50;;;;;;;5.38;51.54;99174.38;4486853;32;34431;-74
2023/03/12 07:16:08;;;;;;;0.77;0.77;;;;;;;5.54;50.51;99170.19;4472812;32;34397;-74
2023/03/12 07:18:36;;;;;;;0.60;0.60;;;;;;;5.54;50.10;99165.03;4486776;32;33971;-74
2023/03/12 07:21:05;;;;;;;0.55;0.55;;;;;;;5.61;50.47;99166.78;4486688;32;35825;-74
2023/03/12 07:23:33;;;;;;;0.70;0.70;;;;;;;5.45;50.43;99165.81;4486755;32;35306;-74
2023/03/12 07:26:04;;;;;;;1.83;1.70;;;;;;;5.56;51.67;99161.59;4486655;32;33426;-74
2023/03/12 07:28:32;;;;;;;0.50;0.50;;;;;;;5.59;49.87;99169.34;4472531;32;32539;-74
2023/03/12 07:31:03;;;;;;;0.73;0.73;;;;;;;5.95;49.26;99177.31;4486741;32;35031;-74
2023/03/12 07:33:31;;;;;;;0.70;0.70;;;;;;;6.41;48.88;99172.41;4486629;32;35949;-74
2023/03/12 07:36:00;;;;;;;0.90;0.90;;;;;;;6.28;48.94;99171.47;4486704;32;33383;-75
2023/03/12 07:38:29;;;;;;;1.50;1.50;;;;;;;6.45;48.96;99169.81;4486788;32;33908;-74
2023/03/12 07:40:59;;;;;;;6.12;3.80;;;;;;;7.14;47.24;99175.97;4486707;32;35438;-74
2023/03/12 07:43:27;;;;;;;15.45;3.80;;;;;;;6.43;49.03;99175.84;4472590;32;34448;-74
2023/03/12 07:45:56;;;;;;;0.93;0.93;;;;;;;7.07;47.95;99176.84;4486602;32;33811;-74
2023/03/12 07:48:24;;;;;;;0.93;0.85;;;;;;;7.03;47.22;99182.00;4472796;32;33860;-74
2023/03/12 07:50:52;;;;;;;0.70;0.70;;;;;;;7.42;46.42;99173.38;4486461;32;35029;-74
2023/03/12 07:53:21;;;;;;;0.60;0.60;;;;;;;7.36;46.37;99177.72;4486609;32;34442;-74
2023/03/12 07:55:49;;;;;;;0.60;0.60;;;;;;;7.55;45.95;99182.84;4472471;32;33404;-74
2023/03/12 07:58:17;;;;;;;0.60;0.60;;;;;;;6.84;46.49;99188.00;4486639;32;34619;-74
2023/03/12 08:00:46;;;;;;;1.48;1.40;;;;;;;6.81;46.81;99182.81;4486366;32;35015;-74
2023/03/12 08:03:15;;;;;;;0.80;0.80;;;;;;;7.80;45.46;99183.72;4486292;32;35175;-74
2023/03/12 08:05:44;;;;;;;0.55;0.55;;;;;;;8.35;45.14;99183.50;4472540;32;33364;-75
2023/03/12 08:08:12;;;;;;;0.70;0.70;;;;;;;8.34;43.78;99188.72;4486443;32;33808;-74
2023/03/12 08:10:41;;;;;;;0.47;0.47;;;;;;;7.88;44.90;99191.44;4486372;32;35801;-74
2023/03/12 08:13:09;;;;;;;1.00;0.90;;;;;;;8.56;44.02;99193.81;4486349;32;34511;-75
2023/03/12 08:15:37;;;;;;;1.83;1.23;;;;;;;8.37;43.54;99183.50;4486467;32;34345;-74
2023/03/12 08:18:06;;;;;;;1.55;0.70;;;;;;;8.76;42.72;99192.00;4486483;32;33880;-74
2023/03/12 08:20:34;;;;;;;0.70;0.70;;;;;;;8.36;44.28;99197.34;4486356;32;35071;-74
2023/03/12 08:23:02;;;;;;;0.50;0.50;;;;;;;7.77;44.30;99194.06;4486283;32;34614;-75
2023/03/12 08:25:31;;;;;;;1.05;0.90;;;;;;;8.24;44.36;99197.38;4486146;32;33501;-75
2023/03/12 08:27:59;;;;;;;1.10;1.10;;;;;;;8.80;43.54;99195.44;4486293;32;34722;-75
2023/03/12 08:30:27;;;;;;;0.82;0.82;;;;;;;9.38;41.36;99192.41;4472203;32;35890;-75
2023/03/12 08:32:57;;;;;;;0.47;0.47;;;;;;;10.21;40.78;99198.53;4486229;32;33547;-75
2023/03/12 08:35:25;;;;;;;1.55;0.90;;;;;;;9.96;41.04;99197.97;4472166;32;33711;-75
2023/03/12 08:37:55;;;;;;;1.00;1.00;;;;;;;9.66;41.53;99200.84;4486290;32;34764;-75
2023/03/12 08:40:24;;;;;;;0.73;0.73;;;;;;;9.92;39.90;99206.66;4486172;32;35914;-75
2023/03/12 08:42:52;;;;;;;0.60;0.60;;;;;;;9.62;42.40;99199.16;4486094;32;35403;-75
2023/03/12 08:45:20;;;;;;;0.43;0.43;;;;;;;10.22;39.10;99206.34;4486250;32;33568;-76
2023/03/12 08:47:49;;;;;;;1.50;0.88;;;;;;;9.61;38.75;99207.81;4472107;32;33911;-75
2023/03/12 08:50:19;;;;;;;0.82;0.82;;;;;;;9.21;38.91;99197.78;4486146;32;35891;-75
2023/03/12 08:52:47;;;;;;;0.90;0.85;;;;;;;9.29;39.68;99198.56;4472327;32;34428;-75
2023/03/12 08:55:16;;;;;;;2.92;2.47;;;;;;;10.70;39.33;99208.37;4471740;32;34309;-74
2023/03/12 08:57:44;;;;;;;1.00;1.00;;;;;;;10.11;38.29;99196.91;4458845;32;33323;-74
2023/03/12 09:00:14;;;;;;;0.98;0.98;;;;;;;10.10;37.52;99200.41;4472103;32;35148;-75
2023/03/12 09:02:44;;;;;;;0.52;0.52;;;;;;;10.71;38.45;99204.91;4458848;32;33637;-75
2023/03/12 09:05:13;;;;;;;2.17;1.02;;;;;;;10.69;38.00;99203.19;4486057;32;33437;-74
2023/03/12 09:07:41;;;;;;;0.88;0.88;;;;;;;10.88;37.04;99211.62;4486047;32;33932;-75
2023/03/12 09:10:10;;;;;;;1.37;1.27;;;;;;;11.02;36.48;99196.62;4472010;32;35141;-75
2023/03/12 09:12:38;;;;;;;1.45;1.35;;;;;;;11.51;36.74;99201.06;4486034;32;35097;-75
2023/03/12 09:15:07;;;;;;;0.50;0.50;;;;;;;11.06;36.57;99200.06;4486135;32;33462;-74
2023/03/12 09:17:36;;;;;;;0.70;0.70;;;;;;;10.94;36.32;99195.88;4471628;32;34057;-75
2023/03/12 09:20:07;;;;;;;0.55;0.55;;;;;;;11.57;35.41;99202.72;4485895;32;35848;-75
2023/03/12 09:22:36;;;;;;;1.33;1.23;;;;;;;11.88;33.80;99192.59;4471860;32;34494;-75
2023/03/12 09:25:06;;;;;;;1.55;1.45;;;;;;;11.77;34.10;99199.78;4468828;32;33746;-75
2023/03/12 09:27:39;;;;;;;0.77;0.77;;;;;;;12.14;32.94;99212.16;4468963;32;34083;-76
2023/03/12 09:30:10;;;;;;;0.50;0.50;;;;;;;12.54;32.16;99200.91;4469058;32;35098;-76
2023/03/12 09:32:38;;;;;;;0.60;0.60;;;;;;;12.64;32.59;99210.28;4469040;32;33656;-76
2023/03/12 09:35:07;;;;;;;0.50;0.47;;;;;;;12.80;32.09;99205.59;4468968;32;33676;-75
2023/03/12 09:37:35;;;;;;;1.20;1.00;;;;;;;12.98;31.01;99208.69;4468769;32;34671;-75
2023/03/12 09:40:08;;;;;;;2.95;0.98;;;;;;;13.38;30.54;99203.41;4468888;32;35960;-76
2023/03/12 09:42:45;;;;;;;1.35;1.25;;;;;;;14.02;30.18;99210.50;4468764;32;34414;-75
2023/03/12 09:45:27;;;;;;;0.40;0.40;;;;;;;14.08;29.44;99210.31;4468845;32;33339;-75
2023/03/12 09:47:58;;;;;;;0.60;0.60;;;;;;;14.49;28.18;99210.06;4468750;32;34747;-76
2023/03/12 09:50:38;;;;;;;0.35;0.35;;;;;;;14.78;28.66;99217.97;4468869;32;35808;-75
2023/03/12 09:53:13;;;;;;;0.80;0.80;;;;;;;15.18;27.97;99215.91;4468767;32;33954;-76
2023/03/12 09:55:44;;;;;;;0.50;0.50;;;;;;;14.74;27.70;99216.34;4469992;32;33914;-76
2023/03/12 09:58:18;;;;;;;0.45;0.45;;;;;;;15.32;26.33;99213.69;4456041;32;34805;-76
2023/03/12 10:00:46;;;;;;;1.15;1.08;;;;;;;15.86;25.68;99197.94;4468714;32;35842;-75
2023/03/12 10:03:52;;;;;;;0.65;0.65;;;;;;;15.57;26.99;99207.66;4469624;32;35148;-75
2023/03/12 10:06:35;;;;;;;0.90;0.90;;;;;;;16.39;24.97;99205.66;4469784;32;33908;-75
2023/03/12 10:09:19;;;;;;;0.40;0.40;;;;;;;16.90;23.84;99205.56;4457126;32;33982;-74
2023/03/12 10:12:06;;;;;;;0.50;0.50;;;;;;;17.02;23.72;99207.72;4457683;32;35232;-75
2023/03/12 10:14:59;;;;;;;1.17;0.95;;;;;;;17.02;25.15;99207.72;4457710;32;34662;-75
2023/03/12 10:17:57;;;;;;;0.20;0.20;;;;;;;17.38;23.82;99205.41;4471709;32;33698;-75
2023/03/12 10:20:41;;;;;;;3.30;0.73;;;;;;;17.23;22.88;99212.12;4470363;32;33895;-75
2023/03/12 10:23:33;;;;;;;1.55;0.30;;;;;;;18.09;23.27;99207.72;4471496;32;35902;-75
2023/03/12 10:26:16;;;;;;;0.75;0.75;;;;;;;18.73;23.17;99209.22;4487065;32;34522;-75
2023/03/12 10:28:48;;;;;;;1.27;1.17;;;;;;;19.57;23.26;99211.44;4487327;32;33579;-75
2023/03/12 10:31:35;;;;;;;0.37;0.37;;;;;;;20.25;21.65;99219.41;4473499;32;34012;-75
2023/03/12 10:34:08;;;;;;;;;;;;;;;21.33;19.35;99208.25;4473761;32;35840;-75
2023/03/12 10:36:38;;;;;;;0.62;0.60;;;;;;;20.60;20.51;99221.13;4473252;32;35323;-75
2023/03/12 10:39:15;;;;;;;0.32;0.32;;;;;;;21.18;20.06;99215.28;4473178;32;33600;-75
2023/03/12 10:41:46;;;;;;;0.30;0.30;;;;;;;20.81;21.06;99219.16;4473124;32;34740;-75
2023/03/12 10:44:22;;;;;;;2.15;1.83;;;;;;;21.25;19.65;99218.47;4487000;32;35239;-76
2023/03/12 10:47:13;;;;;;;0.40;0.40;;;;;;;19.70;20.99;99223.06;4473061;32;34433;-75
2023/03/12 10:49:41;;;;;;;0.30;0.30;;;;;;;20.37;20.38;99222.38;4487006;32;33243;-75
2023/03/12 10:52:18;;;;;;;0.75;0.75;;;;;;;19.61;20.88;99223.53;4486986;32;34868;-75
2023/03/12 10:54:49;;;;;;;0.80;0.80;;;;;;;20.38;20.62;99222.28;4472892;32;36034;-74
2023/03/12 10:57:19;;;;;;;1.55;1.42;;;;;;;20.48;18.95;99227.06;4473007;32;34565;-75
2023/03/12 10:59:49;;;;;;;0.50;0.50;;;;;;;20.27;17.93;99228.12;4486884;32;33537;-75
2023/03/12 11:02:39;;;;;;;0.40;0.40;;;;;;;20.18;18.33;99230.41;4487008;32;34002;-75
2023/03/12 11:05:23;;;;;;;0.82;0.75;;;;;;;20.92;17.73;99229.97;4472807;32;34916;-81
2023/03/12 11:07:52;;;;;;;0.80;0.62;;;;;;;20.17;18.42;99226.91;4486870;32;35127;-76
2023/03/12 11:10:23;;;;;;;0.50;0.50;;;;;;;20.18;16.88;99218.03;4472758;32;33162;-75
2023/03/12 11:13:03;;;;;;;0.30;0.30;;;;;;;22.46;16.58;99226.38;4472877;32;34685;-76
2023/03/12 11:15:42;;;;;;;0.47;0.47;;;;;;;21.35;17.69;99216.13;4487122;32;35187;-76
2023/03/12 11:18:20;;;;;;;0.30;0.30;;;;;;;21.04;17.59;99223.16;4472374;32;33787;-77
2023/03/12 11:20:57;;;;;;;0.35;0.35;;;;;;;21.32;16.79;99222.47;4486746;32;33547;-77
2023/03/12 11:23:28;;;;;;;0.52;0.52;;;;;;;22.40;15.56;99221.47;4472679;32;33904;-77
2023/03/12 11:26:00;;;;;;;7.53;0.65;;;;;;;22.43;15.60;99221.28;4486650;32;35138;-77
2023/03/12 11:28:35;;;;;;;0.30;0.30;;;;;;;22.68;15.91;99225.06;4472240;32;34576;-79
2023/03/12 11:31:08;;;;;;;0.70;0.70;;;;;;;21.56;16.06;99219.38;4485288;32;34361;-81
2023/03/12 11:33:37;;;;;;;0.62;0.62;;;;;;;22.36;14.65;99225.25;4459597;32;34660;-81
2023/03/12 11:36:38;;;;;;;1.02;1.02;;;;;;;21.50;16.16;99220.56;4472653;32;35111;-79
2023/03/12 11:39:31;;;;;;;0.37;0.37;;;;;;;21.05;16.07;99224.00;4459659;32;34423;-77
2023/03/12 11:42:07;;;;;;;0.47;0.47;;;;;;;21.25;14.58;99222.87;4454905;32;33366;-81
2023/03/12 11:44:42;;;;;;;1.20;0.73;;;;;;;21.06;14.79;99217.78;4486460;32;33772;-79
2023/03/12 11:47:46;;;;;;;0.37;0.30;;;;;;;21.62;14.47;99215.50;4486581;32;35120;-80
2023/03/12 11:50:26;;;;;;;0.20;0.20;;;;;;;22.30;13.40;99215.00;4472627;32;34463;-79
2023/03/12 11:53:01;;;;;;;0.20;0.20;;;;;;;22.65;13.76;99223.44;4472446;32;33360;-82
2023/03/12 11:55:48;;;;;;;0.77;0.73;;;;;;;23.65;12.14;99209.06;4486527;32;33465;-81
2023/03/12 11:58:29;;;;;;;0.85;0.85;;;;;;;19.32;16.41;99206.47;4486260;32;35224;-77